メインページ
METAR-TAF:

METAR-TAF

空港 :

カラカス, ベネズエラ

シモン・ボリバル国際空港

緯度: 10-36N, 経度: 066-59W, 海抜: 43m

現時点の気象観測

当レポートは1時間37分前の02:00(UTC)に作成
北東の風 5kt
気温 27°C
湿度 70%
気圧 1012 hPa
視程10km以上
高度1600ftの雲はほとんどない

METAR: SVMI 260200Z 05005KT 9999 FEW016 27/21 Q1012

時間: 23:37 (03:37 UTC)

予報

当レポートは5時間37分前の22:00(UTC)に作成
予報は26日の 00時(UTC)から 27日の 00時(UTC)まで有効
北東の風 4kt
視程10km以上
高度1600ftの雲は散在している
26日の 01時(UTC)から 26日の 07時(UTC)まで徐々に
の風 kt
高度1600ftの雲はほとんどない

TAF: SVMI 252200Z 2600/2700 05004KT 9999 SCT016 TX34/18Z TN25/09Z BECMG 2601/2607 00000KT FEW016

4,000以上の空港の気象観測と天気予報(METAR報とTAF報)

利用可能な観測所は地図上に黄色い丸と赤い丸で示す。

丸の上にカーソルを重ねると観測所名を参照できる。

次にクリックすると気象観測と天気予報を参照できる。

マップの切り替え:黒色「×」印の緑ボタンをクリックして拡大、「-」印の緑ボタンをクリックして縮小、緑色の三角印をクリックして隣りの地図に切り替え


METAR-TAF: